Time;durP1;ratioP1;P1;durP2;ratioP2;P2;SDS_P1;SDS_P2;PMS_P1;PMS_P2;Temp;Humidity;BMP_temperature;BMP_pressure;BME280_temperature;BME280_humidity;BME280_pressure;Samples;Min_cycle;Max_cycle;Signal;HPM_P1;HPM_P2
2021/12/30 00:02:08;;;;;;;29.20;20.80;;;;;;;2.80;59.66;101658.84;1719782;83;21100;-51
2021/12/30 00:04:34;;;;;;;31.40;21.27;;;;;;;2.79;59.63;101663.51;1714734;83;21006;-52
2021/12/30 00:07:01;;;;;;;32.55;21.90;;;;;;;2.78;59.74;101663.04;1758817;80;21006;-52
2021/12/30 00:09:29;;;;;;;30.08;21.90;;;;;;;2.77;59.83;101670.31;1773020;80;21073;-53
2021/12/30 00:11:55;;;;;;;27.67;20.77;;;;;;;2.76;59.88;101668.56;1761411;80;21015;-52
2021/12/30 00:14:22;;;;;;;28.15;21.37;;;;;;;2.74;59.92;101678.38;1768746;80;20991;-51
2021/12/30 00:16:48;;;;;;;27.98;20.88;;;;;;;2.73;59.98;101677.50;1751566;81;21505;-52
2021/12/30 00:19:15;;;;;;;31.65;22.82;;;;;;;2.72;60.04;101674.45;1766086;80;21572;-52
2021/12/30 00:21:41;;;;;;;33.28;22.45;;;;;;;2.71;60.07;101670.17;1765782;80;21506;-52
2021/12/30 00:24:09;;;;;;;32.85;22.60;;;;;;;2.70;60.10;101672.27;1760721;80;21049;-52
2021/12/30 00:26:35;;;;;;;31.75;22.42;;;;;;;2.69;60.14;101673.11;1750411;80;21497;-52
2021/12/30 00:29:03;;;;;;;29.25;22.48;;;;;;;2.68;60.24;101671.36;1753171;80;21542;-51
2021/12/30 00:31:30;;;;;;;31.77;22.87;;;;;;;2.66;60.21;101676.88;1760034;80;21537;-51
2021/12/30 00:33:57;;;;;;;30.20;21.97;;;;;;;2.66;60.29;101680.73;1756095;80;20990;-52
2021/12/30 00:36:23;;;;;;;32.65;23.73;;;;;;;2.64;60.33;101681.11;1752148;80;21026;-52
2021/12/30 00:38:50;;;;;;;33.58;22.02;;;;;;;2.63;60.33;101685.81;1751345;81;21042;-52
2021/12/30 00:41:18;;;;;;;34.98;23.32;;;;;;;2.62;60.40;101684.06;1768741;80;21037;-53
2021/12/30 00:43:46;;;;;;;31.82;23.42;;;;;;;2.63;60.35;101684.94;1765570;80;21467;-52
2021/12/30 00:46:12;;;;;;;35.85;24.72;;;;;;;2.63;60.31;101678.11;1768530;80;21887;-51
2021/12/30 00:48:39;;;;;;;31.75;22.35;;;;;;;2.63;60.31;101684.94;1758587;80;21489;-52
2021/12/30 00:51:08;;;;;;;34.60;22.95;;;;;;;2.62;60.54;101683.22;1750214;80;21011;-52
2021/12/30 00:53:34;;;;;;;34.80;23.95;;;;;;;2.61;60.58;101682.34;1748574;81;21067;-51
2021/12/30 00:56:01;;;;;;;34.35;22.15;;;;;;;2.61;60.72;101687.48;1758746;80;20995;-51
2021/12/30 00:58:27;;;;;;;33.75;22.75;;;;;;;2.61;60.81;101693.91;1767295;80;21036;-52
2021/12/30 01:00:54;;;;;;;34.45;21.93;;;;;;;2.61;60.92;101702.02;1753583;80;20989;-51
2021/12/30 01:03:22;;;;;;;34.25;22.95;;;;;;;2.62;60.88;101702.05;1753457;80;21490;-52
2021/12/30 01:05:49;;;;;;;28.80;22.05;;;;;;;2.59;60.86;101703.27;1757391;80;21577;-52
2021/12/30 01:08:16;;;;;;;32.15;21.93;;;;;;;2.58;61.01;101701.52;1767001;80;21080;-52
2021/12/30 01:10:44;;;;;;;31.70;22.10;;;;;;;2.57;60.99;101699.80;1766402;80;21042;-52
2021/12/30 01:13:16;;;;;;;30.52;21.90;;;;;;;2.56;60.98;101702.30;1752577;80;21168;-52
2021/12/30 01:18:33;;;;;;;32.53;22.20;;;;;;;2.55;61.02;101701.86;1754422;80;21072;-52
2021/12/30 01:20:55;;;;;;;28.57;20.72;;;;;;;2.54;60.98;101708.69;1746683;80;21045;-52
2021/12/30 01:23:23;;;;;;;28.57;20.97;;;;;;;2.51;60.97;101705.18;1773404;80;20975;-52
2021/12/30 01:25:49;;;;;;;29.70;20.43;;;;;;;2.50;60.94;101714.58;1761606;80;21052;-52
2021/12/30 01:28:18;;;;;;;29.10;18.67;;;;;;;2.45;60.86;101713.61;1750283;80;21055;-52
2021/12/30 01:30:44;;;;;;;30.30;18.62;;;;;;;2.40;61.04;101722.88;1756918;80;21038;-52
2021/12/30 01:33:11;;;;;;;27.58;20.70;;;;;;;2.40;61.22;101719.03;1749974;80;21029;-52
2021/12/30 01:35:37;;;;;;;28.55;19.73;;;;;;;2.41;61.12;101722.06;1755988;80;21041;-51
2021/12/30 01:38:11;;;;;;;24.25;17.52;;;;;;;2.40;61.20;101724.16;1754498;80;21529;-52
2021/12/30 01:40:35;;;;;;;23.57;17.15;;;;;;;2.39;61.19;101726.30;1755433;80;21531;-52
2021/12/30 01:43:01;;;;;;;22.90;16.73;;;;;;;2.38;61.33;101737.38;1756001;80;21497;-52
2021/12/30 01:45:28;;;;;;;22.22;16.23;;;;;;;2.38;61.25;101740.83;1759070;80;21544;-52
2021/12/30 01:47:55;;;;;;;23.30;17.20;;;;;;;2.37;61.28;101739.07;1749081;80;21049;-52
2021/12/30 01:50:22;;;;;;;21.62;15.30;;;;;;;2.38;61.26;101739.95;1747494;80;21033;-52
2021/12/30 01:52:49;;;;;;;23.35;16.52;;;;;;;2.39;61.29;101738.70;1760738;80;21017;-52
2021/12/30 01:55:16;;;;;;;21.35;15.72;;;;;;;2.39;61.04;101734.00;1760900;80;21042;-52
2021/12/30 01:57:43;;;;;;;22.58;15.45;;;;;;;2.37;60.82;101733.09;1748980;81;21041;-52
2021/12/30 02:00:12;;;;;;;20.23;15.75;;;;;;;2.34;60.73;101732.99;1749369;80;21049;-52
2021/12/30 02:02:39;;;;;;;20.40;15.23;;;;;;;2.32;60.65;101732.08;1764413;80;21033;-52
2021/12/30 02:05:08;;;;;;;17.75;14.70;;;;;;;2.30;60.67;101722.19;1756839;81;21019;-51
2021/12/30 02:07:36;;;;;;;21.68;15.10;;;;;;;2.29;60.69;101723.88;1771858;81;21034;-52
2021/12/30 02:10:04;;;;;;;18.67;14.15;;;;;;;2.29;60.45;101729.41;1750277;80;20998;-52
2021/12/30 02:12:34;;;;;;;19.32;14.20;;;;;;;2.25;60.39;101738.74;1753090;81;21038;-52
2021/12/30 02:15:02;;;;;;;21.57;15.10;;;;;;;2.23;60.66;101742.09;1750272;80;21017;-52
2021/12/30 02:17:29;;;;;;;19.23;13.95;;;;;;;2.24;60.52;101739.99;1752897;80;21025;-51
2021/12/30 02:20:00;;;;;;;18.32;13.70;;;;;;;2.23;60.28;101744.66;1751439;80;21101;-52
2021/12/30 02:22:26;;;;;;;19.90;14.05;;;;;;;2.25;60.33;101745.57;1768843;80;21001;-51
2021/12/30 02:24:53;;;;;;;17.42;13.45;;;;;;;2.26;60.14;101749.89;1749237;81;21085;-53
2021/12/30 02:27:20;;;;;;;17.70;14.13;;;;;;;2.26;60.19;101751.17;1751877;81;21046;-51
2021/12/30 02:29:46;;;;;;;23.92;14.25;;;;;;;2.27;60.16;101747.36;1747900;81;20990;-51
2021/12/30 02:32:13;;;;;;;18.82;14.10;;;;;;;2.28;60.14;101750.80;1756467;80;21034;-52
2021/12/30 02:34:40;;;;;;;18.98;13.98;;;;;;;2.28;59.98;101753.38;1755841;81;21043;-51
2021/12/30 02:37:07;;;;;;;17.07;13.25;;;;;;;2.25;59.91;101743.00;1754641;80;21553;-52
2021/12/30 02:39:35;;;;;;;20.75;13.72;;;;;;;2.24;60.02;101741.27;1753260;80;21590;-51
2021/12/30 02:42:02;;;;;;;20.70;13.95;;;;;;;2.23;59.64;101738.23;1764207;80;21522;-52
2021/12/30 02:44:29;;;;;;;18.40;13.10;;;;;;;2.17;59.71;101732.53;1757093;80;21546;-52
2021/12/30 02:46:55;;;;;;;16.23;12.93;;;;;;;2.16;59.65;101745.34;1751765;80;21562;-51
2021/12/30 02:49:21;;;;;;;17.90;13.78;;;;;;;2.11;59.68;101746.89;1778221;80;21490;-51
2021/12/30 02:51:48;;;;;;;16.07;12.58;;;;;;;2.10;59.73;101755.44;1764815;80;20986;-52
2021/12/30 02:54:14;;;;;;;17.12;13.05;;;;;;;2.08;59.63;101755.80;1759106;80;20967;-52
2021/12/30 02:56:46;;;;;;;16.80;13.00;;;;;;;2.06;59.72;101758.74;1750394;80;21061;-51
2021/12/30 02:59:09;;;;;;;18.05;13.25;;;;;;;2.05;59.73;101769.82;1754420;80;21045;-51
2021/12/30 03:01:35;;;;;;;19.25;14.30;;;;;;;2.05;59.89;101778.80;1747687;80;21129;-52
2021/12/30 03:04:05;;;;;;;17.62;13.65;;;;;;;2.05;59.77;101778.41;1751815;80;21102;-52
2021/12/30 03:06:32;;;;;;;21.20;15.45;;;;;;;2.03;59.70;101777.89;1760928;80;21071;-52
2021/12/30 03:08:58;;;;;;;17.80;15.00;;;;;;;2.01;59.65;101789.81;1752646;80;20994;-51
2021/12/30 03:11:25;;;;;;;16.90;14.23;;;;;;;1.99;59.60;101786.33;1750864;80;21052;-52
2021/12/30 03:13:53;;;;;;;17.12;13.18;;;;;;;1.99;59.60;101790.18;1761313;81;21007;-52
2021/12/30 03:16:24;;;;;;;16.75;13.18;;;;;;;1.96;59.15;101788.83;1757405;80;21568;-51
2021/12/30 03:18:51;;;;;;;17.85;12.53;;;;;;;1.92;59.15;101795.95;1765591;80;21007;-51
2021/12/30 03:21:20;;;;;;;17.90;13.80;;;;;;;1.89;59.27;101801.01;1756443;80;21046;-51
2021/12/30 03:23:47;;;;;;;18.73;13.83;;;;;;;1.87;59.13;101800.09;1758441;80;21037;-51
2021/12/30 03:26:15;;;;;;;18.32;13.93;;;;;;;1.86;59.13;101798.33;1754513;81;21011;-51
2021/12/30 03:28:43;;;;;;;16.15;13.18;;;;;;;1.82;59.07;101805.48;1760592;80;21635;-52
2021/12/30 03:31:12;;;;;;;15.53;12.28;;;;;;;1.92;58.71;101798.52;1765118;80;21066;-51
2021/12/30 03:33:39;;;;;;;16.85;12.33;;;;;;;1.90;58.74;101804.02;1751716;81;21498;-52
2021/12/30 03:36:06;;;;;;;17.52;12.82;;;;;;;1.86;58.75;101798.33;1753771;80;21457;-52
2021/12/30 03:38:37;;;;;;;15.28;12.10;;;;;;;1.85;58.58;101796.61;1742026;81;21026;-51
2021/12/30 03:41:05;;;;;;;21.55;15.00;;;;;;;1.86;58.53;101804.75;1763387;80;21588;-51
2021/12/30 03:43:32;;;;;;;15.48;12.60;;;;;;;1.84;58.46;101797.42;1767598;80;21033;-51
2021/12/30 03:45:59;;;;;;;16.80;12.53;;;;;;;1.81;58.38;101794.78;1760978;80;21006;-51
2021/12/30 03:48:32;;;;;;;15.83;12.10;;;;;;;1.82;58.44;101795.22;1755349;80;21085;-52
2021/12/30 03:50:54;;;;;;;17.23;12.43;;;;;;;1.81;58.30;101789.64;1763725;80;21078;-51
2021/12/30 03:53:20;;;;;;;16.82;12.15;;;;;;;1.79;58.26;101790.02;1762377;80;21086;-51
2021/12/30 03:55:48;;;;;;;15.10;11.20;;;;;;;1.77;58.29;101792.94;1761049;80;21685;-51
2021/12/30 03:58:16;;;;;;;17.02;12.33;;;;;;;1.74;58.30;101790.27;1758099;80;21067;-52
2021/12/30 04:00:44;;;;;;;13.20;10.68;;;;;;;1.73;58.18;101792.39;1761632;80;21077;-52
2021/12/30 04:03:10;;;;;;;12.93;10.98;;;;;;;1.70;58.36;101797.02;1747865;80;21061;-51
2021/12/30 04:05:37;;;;;;;15.05;11.18;;;;;;;1.72;58.49;101790.23;1760308;80;20986;-51
2021/12/30 04:08:07;;;;;;;14.30;10.53;;;;;;;1.73;58.51;101783.41;1754820;80;21031;-51
2021/12/30 04:10:35;;;;;;;13.77;10.43;;;;;;;1.73;58.40;101790.71;1769309;80;20999;-52
2021/12/30 04:13:02;;;;;;;13.40;10.45;;;;;;;1.74;58.46;101792.84;1755850;81;21455;-51
2021/12/30 04:15:29;;;;;;;12.15;10.60;;;;;;;1.75;58.58;101789.47;1756725;80;21021;-51
2021/12/30 04:17:55;;;;;;;11.73;9.58;;;;;;;1.77;58.52;101793.82;1745162;80;21093;-51
2021/12/30 04:20:22;;;;;;;11.68;9.53;;;;;;;1.77;58.53;101797.67;1765364;80;21026;-51
2021/12/30 04:22:48;;;;;;;13.38;9.48;;;;;;;1.78;58.59;101801.96;1748729;81;21038;-51
2021/12/30 04:25:15;;;;;;;10.45;8.75;;;;;;;1.82;58.70;101808.05;1759205;80;21070;-51
2021/12/30 04:27:43;;;;;;;12.53;10.23;;;;;;;1.83;58.66;101816.22;1756075;80;21030;-52
2021/12/30 04:30:12;;;;;;;12.93;9.80;;;;;;;1.84;58.69;101817.95;1764289;80;21083;-52
2021/12/30 04:32:39;;;;;;;11.80;9.23;;;;;;;1.89;58.82;101827.95;1760336;81;21003;-51
2021/12/30 04:35:07;;;;;;;12.35;9.45;;;;;;;1.92;58.47;101829.31;1747091;80;21478;-51
2021/12/30 04:37:33;;;;;;;12.30;9.35;;;;;;;1.93;58.49;101821.68;1752935;80;21006;-51
2021/12/30 04:40:01;;;;;;;14.55;10.38;;;;;;;1.93;58.50;101825.94;1754251;80;20959;-51
2021/12/30 04:42:29;;;;;;;12.43;9.80;;;;;;;1.95;58.47;101827.73;1760431;81;21030;-51
2021/12/30 04:44:55;;;;;;;13.48;10.00;;;;;;;1.95;58.48;101830.30;1756315;80;21022;-52
2021/12/30 04:47:22;;;;;;;12.95;9.98;;;;;;;2.02;58.28;101836.49;1749475;80;21010;-52
2021/12/30 04:49:49;;;;;;;11.70;9.50;;;;;;;2.03;58.11;101836.93;1766618;80;21029;-51
2021/12/30 04:52:16;;;;;;;12.65;9.83;;;;;;;2.02;58.12;101844.19;1752790;80;21014;-51
2021/12/30 04:54:42;;;;;;;12.88;10.50;;;;;;;2.01;58.09;101841.16;1767876;80;21006;-52
2021/12/30 04:57:09;;;;;;;13.35;11.25;;;;;;;1.98;57.93;101842.36;1755385;80;21024;-52
2021/12/30 04:59:35;;;;;;;14.30;11.53;;;;;;;1.91;58.18;101840.42;1753653;80;21035;-51
2021/12/30 05:02:02;;;;;;;12.78;11.00;;;;;;;1.89;58.25;101852.34;1765062;80;21021;-51
2021/12/30 05:04:30;;;;;;;14.25;11.33;;;;;;;1.89;58.42;101845.92;1754146;80;20994;-51
2021/12/30 05:06:56;;;;;;;16.00;12.40;;;;;;;1.89;58.34;101851.05;1771484;80;21505;-51
2021/12/30 05:09:23;;;;;;;16.87;12.55;;;;;;;1.86;58.45;101856.07;1758607;81;21535;-51
2021/12/30 05:11:50;;;;;;;15.08;12.23;;;;;;;1.85;58.64;101858.20;1758142;80;21054;-51
2021/12/30 05:14:17;;;;;;;15.55;12.25;;;;;;;1.84;58.57;101848.73;1757851;80;21065;-52
2021/12/30 05:16:45;;;;;;;17.15;13.05;;;;;;;1.83;58.62;101861.13;1756236;80;21051;-52
2021/12/30 05:19:12;;;;;;;20.27;14.43;;;;;;;1.81;58.66;101871.76;1757779;81;21055;-51
2021/12/30 05:21:38;;;;;;;17.62;13.62;;;;;;;1.81;58.79;101873.92;1745425;80;21068;-52
2021/12/30 05:24:06;;;;;;;18.12;14.30;;;;;;;1.80;58.85;101878.58;1748225;81;20958;-51
2021/12/30 05:26:34;;;;;;;18.40;13.72;;;;;;;1.80;58.78;101876.41;1751670;80;21070;-51
2021/12/30 05:29:01;;;;;;;16.60;12.58;;;;;;;1.81;58.86;101888.44;1756545;81;20983;-51
2021/12/30 05:31:27;;;;;;;18.48;14.23;;;;;;;1.81;58.85;101889.72;1754997;80;21035;-51
2021/12/30 05:33:54;;;;;;;18.23;14.18;;;;;;;1.79;58.73;101884.95;1761998;80;21018;-51
2021/12/30 05:36:21;;;;;;;18.80;13.75;;;;;;;1.78;58.83;101888.33;1748953;81;21118;-51
2021/12/30 05:38:48;;;;;;;18.15;12.80;;;;;;;1.77;58.93;101902.00;1753254;80;21015;-51
2021/12/30 05:41:15;;;;;;;17.10;13.20;;;;;;;1.79;59.02;101910.21;1764497;80;21026;-51
2021/12/30 05:43:41;;;;;;;16.60;12.95;;;;;;;1.82;58.91;101917.98;1759508;80;21528;-51
2021/12/30 05:46:08;;;;;;;18.98;14.68;;;;;;;1.84;59.02;101923.16;1752681;80;21093;-51
2021/12/30 05:48:34;;;;;;;18.65;14.65;;;;;;;1.88;59.08;101928.85;1759845;80;21026;-51
2021/12/30 05:51:01;;;;;;;19.60;14.98;;;;;;;1.91;59.01;101930.25;1776442;80;21077;-52
2021/12/30 05:53:30;;;;;;;21.02;13.43;;;;;;;1.94;58.99;101935.49;1757580;80;21514;-51
2021/12/30 05:55:57;;;;;;;19.60;13.85;;;;;;;1.97;58.96;101947.12;1763118;80;21054;-51
2021/12/30 05:58:24;;;;;;;18.50;13.75;;;;;;;2.01;58.97;101947.68;1761918;80;21536;-51
2021/12/30 06:00:50;;;;;;;17.55;13.32;;;;;;;2.06;58.94;101951.28;1761109;80;21566;-52
2021/12/30 06:03:19;;;;;;;18.87;14.93;;;;;;;2.08;58.63;101952.20;1747595;80;21572;-52
2021/12/30 06:05:48;;;;;;;18.23;14.28;;;;;;;2.09;58.70;101947.51;1761275;80;21067;-51
2021/12/30 06:08:14;;;;;;;19.15;13.88;;;;;;;2.11;58.58;101952.28;1702192;82;21078;-51
2021/12/30 06:10:42;;;;;;;16.20;12.35;;;;;;;2.09;58.61;101947.10;1697207;83;21065;-52
2021/12/30 06:13:10;;;;;;;15.43;12.45;;;;;;;2.08;58.10;101944.50;1700047;83;21077;-51
2021/12/30 06:15:37;;;;;;;19.98;14.33;;;;;;;2.01;58.06;101943.83;1705995;82;20991;-51
2021/12/30 06:18:04;;;;;;;16.60;13.70;;;;;;;1.97;58.32;101946.72;1687759;83;21070;-51
2021/12/30 06:20:31;;;;;;;20.23;13.85;;;;;;;1.90;58.45;101947.73;1690543;83;21061;-51
2021/12/30 06:22:58;;;;;;;16.77;13.50;;;;;;;1.82;58.61;101966.75;1685549;83;21058;-51
2021/12/30 06:25:25;;;;;;;19.62;14.07;;;;;;;1.74;58.76;101976.30;1686002;83;21063;-52
2021/12/30 06:27:51;;;;;;;17.67;13.55;;;;;;;1.68;59.05;101982.11;1661505;85;21499;-51
2021/12/30 06:30:17;;;;;;;18.75;14.18;;;;;;;1.67;59.15;101985.91;1641343;85;21540;-53
2021/12/30 06:32:44;;;;;;;18.05;14.43;;;;;;;1.61;59.20;101987.43;1644377;85;21059;-51
2021/12/30 06:35:11;;;;;;;21.10;16.05;;;;;;;1.59;59.31;101990.36;1644427;86;21063;-51
2021/12/30 06:37:38;;;;;;;18.50;15.68;;;;;;;1.58;59.52;102000.17;1651311;85;21443;-51
2021/12/30 06:40:07;;;;;;;19.40;15.53;;;;;;;1.58;59.50;102007.88;1650049;85;21596;-51
2021/12/30 06:42:34;;;;;;;20.48;16.57;;;;;;;1.61;59.54;102014.37;1641993;85;21077;-51
2021/12/30 06:45:01;;;;;;;22.58;17.65;;;;;;;1.62;59.41;102016.13;1644527;86;21105;-51
2021/12/30 06:47:27;;;;;;;24.20;17.62;;;;;;;1.62;59.52;102018.70;1638218;86;21594;-51
2021/12/30 06:50:00;;;;;;;32.60;21.90;;;;;;;1.63;59.55;102003.75;1644318;86;21388;-51
2021/12/30 06:52:22;;;;;;;36.68;22.27;;;;;;;1.51;59.94;102007.18;1623062;87;21054;-51
2021/12/30 06:54:48;;;;;;;26.17;19.35;;;;;;;1.51;60.15;102020.41;1639297;87;21107;-51
2021/12/30 06:57:14;;;;;;;23.80;17.95;;;;;;;1.53;60.27;102021.33;1635071;86;21041;-51
2021/12/30 06:59:41;;;;;;;23.30;17.85;;;;;;;1.56;60.30;102031.31;1639677;85;21111;-52
2021/12/30 07:02:07;;;;;;;24.98;17.35;;;;;;;1.56;60.17;102031.31;1644526;86;21171;-51
2021/12/30 07:04:34;;;;;;;21.15;15.38;;;;;;;1.57;59.92;102031.77;1656448;84;21051;-51
2021/12/30 07:07:01;;;;;;;23.25;16.52;;;;;;;1.57;59.88;102026.63;1688370;83;21061;-52
2021/12/30 07:09:28;;;;;;;24.82;17.48;;;;;;;1.60;60.09;102024.19;1717030;82;21024;-51
2021/12/30 07:11:55;;;;;;;21.93;17.57;;;;;;;1.62;60.12;102025.11;1751467;80;21024;-52
2021/12/30 07:14:22;;;;;;;22.37;16.30;;;;;;;1.61;60.15;102027.20;1761420;80;21030;-52
2021/12/30 07:16:49;;;;;;;26.30;17.62;;;;;;;1.62;60.19;102030.24;1754395;80;21098;-51
2021/12/30 07:19:15;;;;;;;22.77;16.70;;;;;;;1.60;60.33;102035.73;1760629;80;21015;-51
2021/12/30 07:21:44;;;;;;;20.32;16.02;;;;;;;1.61;60.55;102041.70;1775402;80;21034;-51
2021/12/30 07:24:10;;;;;;;23.90;17.20;;;;;;;1.62;60.56;102042.19;1769369;80;21042;-52
2021/12/30 07:26:37;;;;;;;22.67;15.85;;;;;;;1.64;60.58;102048.24;1775530;80;21010;-51
2021/12/30 07:29:04;;;;;;;21.82;15.90;;;;;;;1.67;60.78;102042.35;1747101;80;21034;-52
2021/12/30 07:31:31;;;;;;;24.02;17.95;;;;;;;1.72;60.95;102042.97;1760132;80;21030;-52
2021/12/30 07:33:59;;;;;;;24.60;17.98;;;;;;;1.78;60.96;102041.00;1755479;80;21015;-51
2021/12/30 07:36:25;;;;;;;24.27;17.87;;;;;;;1.83;60.88;102034.35;1767351;80;21460;-52
2021/12/30 07:38:51;;;;;;;24.60;18.07;;;;;;;1.85;60.65;102041.69;1745234;81;21455;-51
2021/12/30 07:41:18;;;;;;;25.72;19.15;;;;;;;1.85;60.45;102044.26;1757314;80;21001;-52
2021/12/30 07:43:44;;;;;;;25.23;18.15;;;;;;;1.83;60.31;102053.59;1751223;80;21074;-51
2021/12/30 07:46:11;;;;;;;27.25;19.42;;;;;;;1.81;60.21;102051.39;1734097;81;21136;-51
2021/12/30 07:48:38;;;;;;;23.52;17.98;;;;;;;1.82;60.30;102055.69;1767901;80;21031;-52
2021/12/30 07:51:05;;;;;;;23.20;17.55;;;;;;;1.82;60.14;102053.13;1769740;80;21042;-51
2021/12/30 07:53:31;;;;;;;23.00;16.48;;;;;;;1.82;60.08;102056.56;1760142;80;21030;-52
2021/12/30 07:56:01;;;;;;;20.15;15.55;;;;;;;1.84;59.89;102061.74;1778245;80;21015;-51
2021/12/30 07:58:27;;;;;;;21.60;15.90;;;;;;;1.84;59.86;102063.91;1760687;80;20987;-51
2021/12/30 08:00:53;;;;;;;22.80;17.67;;;;;;;1.82;60.03;102068.52;1759235;80;21522;-51
2021/12/30 08:03:20;;;;;;;21.73;16.60;;;;;;;1.81;60.30;102069.36;1755760;80;21540;-51
2021/12/30 08:05:48;;;;;;;21.30;16.12;;;;;;;1.80;60.30;102080.42;1751716;80;21053;-51
2021/12/30 08:08:14;;;;;;;22.65;16.00;;;;;;;1.79;60.20;102088.55;1751251;80;21467;-52
2021/12/30 08:10:41;;;;;;;20.30;15.23;;;;;;;1.77;60.37;102083.78;1755883;80;21545;-53
2021/12/30 08:13:08;;;;;;;22.77;15.05;;;;;;;1.78;60.37;102085.91;1762972;80;21570;-52
2021/12/30 08:15:34;;;;;;;20.80;15.30;;;;;;;1.80;60.44;102084.27;1750149;80;21518;-52
2021/12/30 08:18:03;;;;;;;19.75;15.50;;;;;;;1.78;60.28;102087.20;1752203;80;21046;-51
2021/12/30 08:20:29;;;;;;;19.62;14.98;;;;;;;1.79;60.27;102094.09;1755052;80;21490;-52
2021/12/30 08:22:56;;;;;;;22.20;15.43;;;;;;;1.81;60.38;102097.58;1779108;80;21797;-51
2021/12/30 08:25:23;;;;;;;18.57;15.55;;;;;;;1.85;60.44;102102.88;1769159;80;21459;-53
2021/12/30 08:27:50;;;;;;;19.98;14.65;;;;;;;1.88;60.32;102100.80;1755638;81;20995;-51
2021/12/30 08:30:19;;;;;;;18.23;14.85;;;;;;;1.92;60.32;102105.22;1759345;80;21066;-53
2021/12/30 08:32:46;;;;;;;18.50;14.68;;;;;;;1.94;60.13;102094.63;1755821;80;21057;-51
2021/12/30 08:35:14;;;;;;;20.20;16.45;;;;;;;1.99;60.02;102091.39;1772874;80;21077;-52
2021/12/30 08:37:43;;;;;;;20.80;15.13;;;;;;;2.02;59.79;102086.78;1763892;80;21063;-51
2021/12/30 08:40:11;;;;;;;15.98;12.82;;;;;;;2.08;59.54;102079.28;1753474;80;21562;-52
2021/12/30 08:42:38;;;;;;;16.62;12.90;;;;;;;2.11;59.54;102097.34;1758587;81;21575;-52
2021/12/30 08:45:07;;;;;;;17.00;13.50;;;;;;;2.16;59.48;102099.66;1761035;80;21026;-51
2021/12/30 08:47:34;;;;;;;16.62;12.80;;;;;;;2.17;59.05;102099.70;1758678;81;21030;-52
2021/12/30 08:50:05;;;;;;;17.42;12.90;;;;;;;2.20;58.78;102096.38;1753557;80;21077;-51
2021/12/30 08:52:33;;;;;;;17.07;13.10;;;;;;;2.14;58.54;102089.31;1749154;80;21467;-51
2021/12/30 08:55:00;;;;;;;18.42;13.05;;;;;;;2.08;58.35;102090.83;1758485;80;21178;-51
2021/12/30 08:57:27;;;;;;;19.40;14.05;;;;;;;1.99;58.28;102084.09;1755265;81;21007;-51
2021/12/30 08:59:53;;;;;;;19.52;15.28;;;;;;;1.92;58.19;102081.72;1764206;80;21006;-52
2021/12/30 09:02:20;;;;;;;20.70;14.73;;;;;;;1.86;58.20;102078.06;1762440;80;21042;-53
2021/12/30 09:04:47;;;;;;;20.65;15.70;;;;;;;1.83;58.47;102079.27;1773808;80;21092;-52
2021/12/30 09:07:16;;;;;;;19.52;15.70;;;;;;;1.80;58.27;102083.88;1735861;80;21033;-51
2021/12/30 09:09:43;;;;;;;18.50;13.95;;;;;;;1.78;58.37;102084.63;1765428;80;20987;-52
2021/12/30 09:12:10;;;;;;;22.25;14.98;;;;;;;1.75;58.09;102088.39;1754136;80;21033;-52
2021/12/30 09:14:36;;;;;;;18.35;14.35;;;;;;;1.69;58.22;102083.89;1756797;80;20963;-51
2021/12/30 09:17:04;;;;;;;18.85;14.83;;;;;;;1.64;58.31;102076.06;1730936;80;21037;-51
2021/12/30 09:19:31;;;;;;;19.07;13.88;;;;;;;1.66;58.56;102076.11;1749678;81;21067;-52
2021/12/30 09:21:58;;;;;;;16.97;13.43;;;;;;;1.67;58.70;102073.98;1750285;80;21013;-51
2021/12/30 09:24:24;;;;;;;19.92;14.60;;;;;;;1.73;58.63;102075.92;1773089;80;21519;-52
2021/12/30 09:26:51;;;;;;;20.88;15.03;;;;;;;1.78;58.60;102076.93;1760534;80;21046;-52
2021/12/30 09:29:18;;;;;;;19.75;15.20;;;;;;;1.83;58.66;102075.41;1767063;80;21554;-51
2021/12/30 09:31:47;;;;;;;17.87;14.10;;;;;;;1.86;58.65;102082.80;1751575;80;21519;-51
2021/12/30 09:34:14;;;;;;;17.55;14.83;;;;;;;1.91;58.47;102082.96;1753715;81;21010;-52
2021/12/30 09:36:40;;;;;;;22.45;16.17;;;;;;;1.95;58.47;102083.12;1734405;80;21078;-51
2021/12/30 09:39:11;;;;;;;18.80;14.55;;;;;;;2.01;58.29;102081.17;1743127;80;20987;-52
2021/12/30 09:41:40;;;;;;;17.32;13.10;;;;;;;2.07;58.00;102078.80;1775213;80;21498;-51
2021/12/30 09:44:07;;;;;;;18.37;13.98;;;;;;;2.15;57.77;102086.34;1764186;80;20958;-51
2021/12/30 09:46:34;;;;;;;19.23;14.75;;;;;;;2.18;57.57;102077.48;1758244;80;21019;-52
2021/12/30 09:49:02;;;;;;;26.97;19.32;;;;;;;2.19;57.51;102074.07;1766897;80;21501;-52
2021/12/30 09:51:29;;;;;;;19.02;15.43;;;;;;;2.17;57.31;102069.30;1770672;80;21010;-51
2021/12/30 09:53:55;;;;;;;21.30;15.45;;;;;;;2.16;57.28;102072.70;1753508;80;21018;-51
2021/12/30 09:56:22;;;;;;;23.40;16.48;;;;;;;2.16;57.22;102077.84;1768627;80;21541;-51
2021/12/30 09:58:49;;;;;;;19.65;15.98;;;;;;;2.14;57.24;102084.62;1761854;80;21076;-52
2021/12/30 10:01:15;;;;;;;20.75;15.45;;;;;;;2.11;57.18;102081.53;1764568;80;21070;-51
2021/12/30 10:03:45;;;;;;;21.50;15.63;;;;;;;2.10;57.14;102089.19;1751193;81;21589;-53
2021/12/30 10:06:14;;;;;;;21.40;15.88;;;;;;;2.08;57.19;102088.27;1756414;80;21545;-51
2021/12/30 10:09:02;;;;;;;17.67;13.78;;;;;;;2.09;57.00;102096.02;1747066;80;21062;-51
2021/12/30 10:11:29;;;;;;;20.23;15.03;;;;;;;2.08;56.99;102089.55;1673303;84;21597;-52
2021/12/30 10:14:00;;;;;;;17.25;13.75;;;;;;;2.09;57.13;102101.14;1675663;83;21534;-51
2021/12/30 10:16:26;;;;;;;18.55;15.13;;;;;;;2.14;56.98;102091.03;1691010;84;21532;-51
2021/12/30 10:18:57;;;;;;;19.87;14.23;;;;;;;2.19;57.08;102082.66;1700361;84;21081;-52
2021/12/30 10:21:37;;;;;;;17.42;13.48;;;;;;;2.23;56.84;102084.91;1650646;85;21569;-52
2021/12/30 10:24:06;;;;;;;17.92;13.95;;;;;;;2.23;56.70;102087.07;1651207;84;21034;-52
2021/12/30 10:26:56;;;;;;;19.95;15.20;;;;;;;2.27;56.74;102087.63;1657781;84;21570;-52
2021/12/30 10:29:24;;;;;;;20.43;13.93;;;;;;;2.34;56.59;102091.28;1645728;84;21054;-51
2021/12/30 10:31:53;;;;;;;20.25;14.18;;;;;;;2.37;56.50;102079.83;1644971;86;21117;-51
2021/12/30 10:34:22;;;;;;;18.17;14.05;;;;;;;2.39;56.29;102075.61;1610378;87;21107;-51
2021/12/30 10:36:50;;;;;;;18.30;14.35;;;;;;;2.37;56.28;102064.42;1586431;88;21055;-51
2021/12/30 10:39:30;;;;;;;18.52;14.33;;;;;;;2.40;56.33;102070.52;1587505;88;21141;-51
2021/12/30 10:42:16;;;;;;;19.27;14.30;;;;;;;2.46;56.25;102064.70;1614879;86;21127;-51
2021/12/30 10:44:53;;;;;;;19.57;14.13;;;;;;;2.47;56.22;102066.45;1618482;85;21656;-51
2021/12/30 10:47:26;;;;;;;19.00;16.20;;;;;;;2.41;56.12;102058.12;1633413;86;22503;-53
2021/12/30 10:50:07;;;;;;;20.40;14.23;;;;;;;2.38;56.32;102052.91;1627822;85;21066;-52
2021/12/30 10:52:47;;;;;;;19.40;14.23;;;;;;;2.37;56.35;102052.86;1594607;88;21014;-52
2021/12/30 10:55:15;;;;;;;19.67;14.70;;;;;;;2.34;56.33;102055.31;1468951;96;21549;-51
2021/12/30 10:57:41;;;;;;;17.62;14.07;;;;;;;2.33;56.37;102059.98;1491925;95;21228;-51
2021/12/30 11:00:10;;;;;;;19.82;14.70;;;;;;;2.34;56.49;102057.48;1492114;95;21244;-51
2021/12/30 11:02:36;;;;;;;18.70;14.90;;;;;;;2.33;56.64;102054.44;1470270;96;21122;-51
2021/12/30 11:05:10;;;;;;;19.25;14.50;;;;;;;2.33;56.68;102054.84;1458751;96;22750;-52
2021/12/30 11:07:49;;;;;;;20.75;15.70;;;;;;;2.32;56.80;102049.27;1482749;93;21176;-51
2021/12/30 11:10:32;;;;;;;17.42;14.35;;;;;;;2.32;56.72;102046.69;1510153;93;21085;-52
2021/12/30 11:13:11;;;;;;;18.48;14.68;;;;;;;2.29;56.42;102051.71;1542359;91;21087;-51
2021/12/30 11:15:38;;;;;;;21.73;14.50;;;;;;;2.25;56.58;102046.90;1542164;91;21081;-51
2021/12/30 11:18:12;;;;;;;18.55;14.10;;;;;;;2.23;56.83;102043.81;1550037;91;21624;-51
2021/12/30 11:20:41;;;;;;;17.15;13.05;;;;;;;2.26;56.89;102047.78;1559715;90;21675;-52
2021/12/30 11:23:08;;;;;;;17.73;13.38;;;;;;;2.29;56.95;102046.58;1561772;90;21166;-51